sensor_id;sensor_type;location;lat;lon;timestamp;pressure;altitude;pressure_sealevel;temperature;humidity
13690;BME280;6917;52.194;9.894;2023-04-16T15:53:30;100985.25;;;10.37;100.00
13690;BME280;6917;52.194;9.894;2023-04-16T15:56:33;100982.91;;;10.49;100.00
13690;BME280;6917;52.194;9.894;2023-04-16T15:58:59;100985.25;;;10.56;100.00
13690;BME280;6917;52.194;9.894;2023-04-16T16:01:24;100992.34;;;10.57;100.00
13690;BME280;6917;52.194;9.894;2023-04-16T16:03:50;100992.56;;;10.60;100.00
13690;BME280;6917;52.194;9.894;2023-04-16T16:06:16;100990.84;;;10.64;100.00
13690;BME280;6917;52.194;9.894;2023-04-16T16:08:42;101001.69;;;10.69;100.00
13690;BME280;6917;52.194;9.894;2023-04-16T16:11:07;101002.78;;;10.68;100.00
13690;BME280;6917;52.194;9.894;2023-04-16T16:13:33;101004.66;;;10.73;100.00
13690;BME280;6917;52.194;9.894;2023-04-16T16:15:59;101002.72;;;10.73;100.00
13690;BME280;6917;52.194;9.894;2023-04-16T16:18:25;101003.84;;;10.72;100.00
13690;BME280;6917;52.194;9.894;2023-04-16T16:20:55;101010.13;;;10.73;100.00
13690;BME280;6917;52.194;9.894;2023-04-16T16:23:22;101010.13;;;10.73;100.00
13690;BME280;6917;52.194;9.894;2023-04-16T16:25:49;101011.53;;;10.70;100.00
13690;BME280;6917;52.194;9.894;2023-04-16T16:28:15;101004.97;;;10.71;100.00
13690;BME280;6917;52.194;9.894;2023-04-16T16:30:40;101016.50;;;10.82;100.00
13690;BME280;6917;52.194;9.894;2023-04-16T16:33:05;101015.94;;;10.85;100.00
13690;BME280;6917;52.194;9.894;2023-04-16T16:35:31;101012.91;;;10.87;100.00
13690;BME280;6917;52.194;9.894;2023-04-16T16:37:56;101009.75;;;10.93;100.00
13690;BME280;6917;52.194;9.894;2023-04-16T16:40:23;101013.81;;;10.96;100.00
13690;BME280;6917;52.194;9.894;2023-04-16T16:42:48;101015.94;;;10.99;100.00
13690;BME280;6917;52.194;9.894;2023-04-16T16:45:14;101021.66;;;11.02;100.00
13690;BME280;6917;52.194;9.894;2023-04-16T16:47:39;101020.75;;;11.07;100.00
13690;BME280;6917;52.194;9.894;2023-04-16T16:50:05;101018.72;;;11.13;100.00
13690;BME280;6917;52.194;9.894;2023-04-16T16:52:31;101020.56;;;11.17;100.00
13690;BME280;6917;52.194;9.894;2023-04-16T16:54:56;101024.81;;;11.23;100.00
13690;BME280;6917;52.194;9.894;2023-04-16T16:57:22;101017.72;;;11.22;100.00
13690;BME280;6917;52.194;9.894;2023-04-16T16:59:51;101029.88;;;11.16;100.00
13690;BME280;6917;52.194;9.894;2023-04-16T17:02:17;101035.47;;;11.25;100.00
13690;BME280;6917;52.194;9.894;2023-04-16T17:04:42;101036.28;;;10.93;100.00
13690;BME280;6917;52.194;9.894;2023-04-16T17:07:08;101027.38;;;10.68;100.00
13690;BME280;6917;52.194;9.894;2023-04-16T17:09:33;101024.53;;;10.60;100.00
13690;BME280;6917;52.194;9.894;2023-04-16T17:11:59;101028.69;;;10.57;100.00
13690;BME280;6917;52.194;9.894;2023-04-16T17:14:24;101033.09;;;10.53;100.00
13690;BME280;6917;52.194;9.894;2023-04-16T17:16:49;101037.75;;;10.53;100.00
13690;BME280;6917;52.194;9.894;2023-04-16T17:19:15;101041.38;;;10.48;100.00
13690;BME280;6917;52.194;9.894;2023-04-16T17:21:42;101038.72;;;10.43;100.00
13690;BME280;6917;52.194;9.894;2023-04-16T17:24:07;101034.09;;;10.43;100.00
13690;BME280;6917;52.194;9.894;2023-04-16T17:26:32;101037.97;;;10.37;100.00
13690;BME280;6917;52.194;9.894;2023-04-16T17:28:58;101048.09;;;10.37;100.00
13690;BME280;6917;52.194;9.894;2023-04-16T17:31:24;101042.94;;;10.35;100.00
13690;BME280;6917;52.194;9.894;2023-04-16T17:33:51;101044.84;;;10.35;100.00
13690;BME280;6917;52.194;9.894;2023-04-16T17:36:17;101048.91;;;10.37;100.00
13690;BME280;6917;52.194;9.894;2023-04-16T17:38:44;101051.50;;;10.29;100.00
13690;BME280;6917;52.194;9.894;2023-04-16T17:41:09;101053.47;;;10.23;100.00
13690;BME280;6917;52.194;9.894;2023-04-16T17:43:35;101058.41;;;10.21;100.00
13690;BME280;6917;52.194;9.894;2023-04-16T17:46:00;101055.44;;;10.18;100.00
13690;BME280;6917;52.194;9.894;2023-04-16T17:48:25;101060.69;;;10.14;100.00
13690;BME280;6917;52.194;9.894;2023-04-16T17:50:51;101056.06;;;10.09;100.00
13690;BME280;6917;52.194;9.894;2023-04-16T17:53:17;101063.75;;;10.07;100.00
13690;BME280;6917;52.194;9.894;2023-04-16T17:55:50;101068.41;;;10.07;100.00
13690;BME280;6917;52.194;9.894;2023-04-16T17:58:15;101079.63;;;10.05;100.00
13690;BME280;6917;52.194;9.894;2023-04-16T18:00:41;101070.97;;;9.98;100.00
13690;BME280;6917;52.194;9.894;2023-04-16T18:03:06;101072.94;;;9.93;100.00
13690;BME280;6917;52.194;9.894;2023-04-16T18:05:33;101084.66;;;9.93;100.00
13690;BME280;6917;52.194;9.894;2023-04-16T18:07:59;101082.81;;;9.89;100.00
13690;BME280;6917;52.194;9.894;2023-04-16T18:10:24;101090.19;;;9.88;100.00
13690;BME280;6917;52.194;9.894;2023-04-16T18:12:50;101084.22;;;9.86;100.00
13690;BME280;6917;52.194;9.894;2023-04-16T18:15:16;101083.94;;;9.88;100.00
13690;BME280;6917;52.194;9.894;2023-04-16T18:17:41;101087.00;;;9.81;100.00
13690;BME280;6917;52.194;9.894;2023-04-16T18:20:07;101094.66;;;9.79;100.00
13690;BME280;6917;52.194;9.894;2023-04-16T18:22:33;101089.97;;;9.84;100.00
13690;BME280;6917;52.194;9.894;2023-04-16T18:24:58;101093.84;;;9.78;100.00
13690;BME280;6917;52.194;9.894;2023-04-16T18:27:24;101098.56;;;9.73;100.00
13690;BME280;6917;52.194;9.894;2023-04-16T18:29:49;101099.97;;;9.70;100.00
13690;BME280;6917;52.194;9.894;2023-04-16T18:32:15;101105.16;;;9.67;100.00
13690;BME280;6917;52.194;9.894;2023-04-16T18:34:40;101104.34;;;9.66;100.00
13690;BME280;6917;52.194;9.894;2023-04-16T18:37:06;101109.78;;;9.71;100.00
13690;BME280;6917;52.194;9.894;2023-04-16T18:39:32;101112.81;;;9.65;100.00
13690;BME280;6917;52.194;9.894;2023-04-16T18:41:57;101117.81;;;9.58;100.00
13690;BME280;6917;52.194;9.894;2023-04-16T18:44:23;101117.81;;;9.58;100.00
13690;BME280;6917;52.194;9.894;2023-04-16T18:46:48;101128.22;;;9.56;100.00
13690;BME280;6917;52.194;9.894;2023-04-16T18:49:14;101127.91;;;9.57;100.00
13690;BME280;6917;52.194;9.894;2023-04-16T18:51:39;101135.59;;;9.55;100.00
13690;BME280;6917;52.194;9.894;2023-04-16T18:54:06;101126.28;;;9.56;100.00
13690;BME280;6917;52.194;9.894;2023-04-16T18:56:31;101136.13;;;9.52;100.00
13690;BME280;6917;52.194;9.894;2023-04-16T18:58:56;101134.56;;;9.46;100.00
13690;BME280;6917;52.194;9.894;2023-04-16T19:01:22;101139.50;;;9.44;100.00
13690;BME280;6917;52.194;9.894;2023-04-16T19:03:47;101145.25;;;9.37;100.00
13690;BME280;6917;52.194;9.894;2023-04-16T19:06:12;101142.00;;;9.35;100.00
13690;BME280;6917;52.194;9.894;2023-04-16T19:08:37;101143.13;;;9.34;100.00
13690;BME280;6917;52.194;9.894;2023-04-16T19:11:03;101147.22;;;9.32;100.00
13690;BME280;6917;52.194;9.894;2023-04-16T19:13:28;101148.09;;;9.27;100.00
13690;BME280;6917;52.194;9.894;2023-04-16T19:15:58;101149.22;;;9.21;100.00
13690;BME280;6917;52.194;9.894;2023-04-16T19:18:24;101147.88;;;9.18;100.00
13690;BME280;6917;52.194;9.894;2023-04-16T19:20:50;101147.88;;;9.18;100.00
13690;BME280;6917;52.194;9.894;2023-04-16T19:23:15;101144.63;;;9.16;100.00
13690;BME280;6917;52.194;9.894;2023-04-16T19:25:41;101152.84;;;9.11;100.00
13690;BME280;6917;52.194;9.894;2023-04-16T19:28:06;101150.16;;;9.06;100.00
13690;BME280;6917;52.194;9.894;2023-04-16T19:30:31;101155.59;;;9.06;100.00
13690;BME280;6917;52.194;9.894;2023-04-16T19:32:57;101157.28;;;9.02;100.00
13690;BME280;6917;52.194;9.894;2023-04-16T19:35:22;101163.28;;;8.99;100.00
13690;BME280;6917;52.194;9.894;2023-04-16T19:37:47;101160.31;;;8.95;100.00
13690;BME280;6917;52.194;9.894;2023-04-16T19:40:13;101166.84;;;8.94;100.00
13690;BME280;6917;52.194;9.894;2023-04-16T19:42:39;101167.94;;;8.93;100.00
13690;BME280;6917;52.194;9.894;2023-04-16T19:45:05;101161.94;;;8.97;100.00
13690;BME280;6917;52.194;9.894;2023-04-16T19:47:30;101171.00;;;8.87;100.00
13690;BME280;6917;52.194;9.894;2023-04-16T19:49:56;101156.34;;;8.78;100.00
13690;BME280;6917;52.194;9.894;2023-04-16T19:52:21;101166.47;;;8.72;100.00
13690;BME280;6917;52.194;9.894;2023-04-16T19:54:46;101171.91;;;8.72;100.00
13690;BME280;6917;52.194;9.894;2023-04-16T19:57:12;101161.59;;;8.64;100.00
13690;BME280;6917;52.194;9.894;2023-04-16T19:59:37;101163.25;;;8.60;100.00
13690;BME280;6917;52.194;9.894;2023-04-16T20:02:03;101165.44;;;8.58;100.00
13690;BME280;6917;52.194;9.894;2023-04-16T20:04:28;101170.38;;;8.56;100.00
13690;BME280;6917;52.194;9.894;2023-04-16T20:06:54;101168.16;;;8.53;100.00
13690;BME280;6917;52.194;9.894;2023-04-16T20:09:19;101162.19;;;8.51;100.00
13690;BME280;6917;52.194;9.894;2023-04-16T20:11:45;101175.28;;;8.49;100.00
13690;BME280;6917;52.194;9.894;2023-04-16T20:14:11;101178.03;;;8.44;100.00
13690;BME280;6917;52.194;9.894;2023-04-16T20:16:36;101171.75;;;8.48;100.00
13690;BME280;6917;52.194;9.894;2023-04-16T20:19:03;101173.44;;;8.39;100.00
13690;BME280;6917;52.194;9.894;2023-04-16T20:21:28;101173.16;;;8.35;100.00
13690;BME280;6917;52.194;9.894;2023-04-16T20:23:54;101176.41;;;8.38;100.00
13690;BME280;6917;52.194;9.894;2023-04-16T20:26:19;101179.66;;;8.45;100.00
13690;BME280;6917;52.194;9.894;2023-04-16T20:28:48;101172.06;;;8.37;100.00
13690;BME280;6917;52.194;9.894;2023-04-16T20:31:13;101176.69;;;8.31;100.00
13690;BME280;6917;52.194;9.894;2023-04-16T20:33:39;101184.31;;;8.29;100.00
13690;BME280;6917;52.194;9.894;2023-04-16T20:36:05;101170.44;;;8.35;100.00
13690;BME280;6917;52.194;9.894;2023-04-16T20:38:30;101179.41;;;8.36;100.00
13690;BME280;6917;52.194;9.894;2023-04-16T20:40:58;101177.78;;;8.35;100.00
13690;BME280;6917;52.194;9.894;2023-04-16T20:43:39;101184.56;;;8.38;100.00
13690;BME280;6917;52.194;9.894;2023-04-16T20:46:06;101178.88;;;8.29;100.00
13690;BME280;6917;52.194;9.894;2023-04-16T20:48:32;101175.88;;;8.30;100.00
13690;BME280;6917;52.194;9.894;2023-04-16T20:51:02;101179.13;;;8.32;100.00
13690;BME280;6917;52.194;9.894;2023-04-16T20:53:28;101182.94;;;8.37;100.00
13690;BME280;6917;52.194;9.894;2023-04-16T20:55:54;101183.22;;;8.30;100.00
13690;BME280;6917;52.194;9.894;2023-04-16T20:58:20;101179.94;;;8.33;100.00
13690;BME280;6917;52.194;9.894;2023-04-16T21:00:50;101185.66;;;8.42;100.00
13690;BME280;6917;52.194;9.894;2023-04-16T21:03:15;101181.56;;;8.44;100.00
13690;BME280;6917;52.194;9.894;2023-04-16T21:05:41;101178.00;;;8.54;100.00
13690;BME280;6917;52.194;9.894;2023-04-16T21:08:06;101187.50;;;8.56;100.00
13690;BME280;6917;52.194;9.894;2023-04-16T21:10:31;101190.25;;;8.51;100.00
13690;BME280;6917;52.194;9.894;2023-04-16T21:12:57;101184.72;;;8.67;100.00
13690;BME280;6917;52.194;9.894;2023-04-16T21:15:22;101185.63;;;8.47;100.00
13690;BME280;6917;52.194;9.894;2023-04-16T21:17:48;101186.50;;;8.37;100.00
13690;BME280;6917;52.194;9.894;2023-04-16T21:20:13;101188.03;;;8.53;100.00
13690;BME280;6917;52.194;9.894;2023-04-16T21:22:39;101192.69;;;8.58;100.00
13690;BME280;6917;52.194;9.894;2023-04-16T21:25:05;101193.00;;;8.46;100.00
13690;BME280;6917;52.194;9.894;2023-04-16T21:27:31;101186.50;;;8.42;100.00
13690;BME280;6917;52.194;9.894;2023-04-16T21:29:56;101192.47;;;8.44;100.00
13690;BME280;6917;52.194;9.894;2023-04-16T21:32:21;101194.34;;;8.49;100.00
13690;BME280;6917;52.194;9.894;2023-04-16T21:34:47;101201.19;;;8.36;100.00
13690;BME280;6917;52.194;9.894;2023-04-16T21:37:12;101198.47;;;8.31;100.00
13690;BME280;6917;52.194;9.894;2023-04-16T21:39:37;101188.13;;;8.23;100.00
13690;BME280;6917;52.194;9.894;2023-04-16T21:42:02;101191.16;;;8.26;100.00
13690;BME280;6917;52.194;9.894;2023-04-16T21:44:28;101191.13;;;8.31;100.00
13690;BME280;6917;52.194;9.894;2023-04-16T21:46:53;101197.09;;;8.33;100.00
13690;BME280;6917;52.194;9.894;2023-04-16T21:49:18;101197.94;;;8.29;100.00
13690;BME280;6917;52.194;9.894;2023-04-16T21:51:44;101189.22;;;8.22;100.00
13690;BME280;6917;52.194;9.894;2023-04-16T21:54:10;101190.09;;;8.12;100.00
13690;BME280;6917;52.194;9.894;2023-04-16T21:56:36;101192.53;;;8.09;100.00
13690;BME280;6917;52.194;9.894;2023-04-16T21:59:01;101191.16;;;8.16;100.00
13690;BME280;6917;52.194;9.894;2023-04-16T22:01:26;101190.91;;;8.13;100.00
13690;BME280;6917;52.194;9.894;2023-04-16T22:03:52;101194.44;;;8.18;100.00
13690;BME280;6917;52.194;9.894;2023-04-16T22:06:17;101199.06;;;8.18;100.00
13690;BME280;6917;52.194;9.894;2023-04-16T22:08:43;101198.50;;;8.21;100.00
13690;BME280;6917;52.194;9.894;2023-04-16T22:11:08;101196.06;;;8.19;100.00
13690;BME280;6917;52.194;9.894;2023-04-16T22:13:33;101196.06;;;8.09;100.00
13690;BME280;6917;52.194;9.894;2023-04-16T22:16:00;101193.63;;;8.13;100.00
13690;BME280;6917;52.194;9.894;2023-04-16T22:18:26;101204.00;;;8.11;100.00
13690;BME280;6917;52.194;9.894;2023-04-16T22:20:53;101202.03;;;8.21;100.00
13690;BME280;6917;52.194;9.894;2023-04-16T22:23:20;101205.00;;;8.30;100.00
13690;BME280;6917;52.194;9.894;2023-04-16T22:25:45;101203.72;;;8.12;100.00
13690;BME280;6917;52.194;9.894;2023-04-16T22:28:11;101202.59;;;8.08;100.00
13690;BME280;6917;52.194;9.894;2023-04-16T22:30:36;101210.50;;;8.15;100.00
13690;BME280;6917;52.194;9.894;2023-04-16T22:33:01;101202.06;;;8.06;100.00
13690;BME280;6917;52.194;9.894;2023-04-16T22:35:28;101201.50;;;8.09;100.00
13690;BME280;6917;52.194;9.894;2023-04-16T22:37:53;101211.34;;;7.95;100.00
13690;BME280;6917;52.194;9.894;2023-04-16T22:40:18;101208.63;;;8.00;100.00
13690;BME280;6917;52.194;9.894;2023-04-16T22:42:44;101199.91;;;7.93;100.00
13690;BME280;6917;52.194;9.894;2023-04-16T22:45:10;101203.75;;;7.97;100.00
13690;BME280;6917;52.194;9.894;2023-04-16T22:47:35;101199.13;;;7.87;100.00
13690;BME280;6917;52.194;9.894;2023-04-16T22:50:01;101196.94;;;7.99;100.00
13690;BME280;6917;52.194;9.894;2023-04-16T22:52:27;101195.81;;;7.95;100.00
13690;BME280;6917;52.194;9.894;2023-04-16T22:54:52;101198.28;;;7.92;100.00
13690;BME280;6917;52.194;9.894;2023-04-16T22:57:18;101201.81;;;7.92;100.00
13690;BME280;6917;52.194;9.894;2023-04-16T22:59:47;101206.41;;;8.07;100.00
13690;BME280;6917;52.194;9.894;2023-04-16T23:02:12;101205.63;;;8.01;100.00
13690;BME280;6917;52.194;9.894;2023-04-16T23:04:38;101200.72;;;7.93;100.00
13690;BME280;6917;52.194;9.894;2023-04-16T23:07:03;101208.91;;;7.93;100.00
13690;BME280;6917;52.194;9.894;2023-04-16T23:09:28;101206.44;;;7.92;100.00
13690;BME280;6917;52.194;9.894;2023-04-16T23:11:54;101204.03;;;7.85;100.00
13690;BME280;6917;52.194;9.894;2023-04-16T23:14:19;101207.28;;;7.87;100.00
13690;BME280;6917;52.194;9.894;2023-04-16T23:16:45;101209.16;;;7.92;100.00
13690;BME280;6917;52.194;9.894;2023-04-16T23:19:10;101208.63;;;7.80;100.00
13690;BME280;6917;52.194;9.894;2023-04-16T23:21:39;101210.56;;;7.84;100.00
13690;BME280;6917;52.194;9.894;2023-04-16T23:24:05;101211.94;;;7.82;100.00
13690;BME280;6917;52.194;9.894;2023-04-16T23:26:30;101215.44;;;7.87;100.00
13690;BME280;6917;52.194;9.894;2023-04-16T23:28:56;101211.94;;;7.82;100.00
13690;BME280;6917;52.194;9.894;2023-04-16T23:31:22;101210.28;;;7.81;100.00
13690;BME280;6917;52.194;9.894;2023-04-16T23:33:47;101204.84;;;7.81;100.00
13690;BME280;6917;52.194;9.894;2023-04-16T23:36:13;101211.41;;;7.69;100.00
13690;BME280;6917;52.194;9.894;2023-04-16T23:38:38;101206.22;;;7.73;100.00
13690;BME280;6917;52.194;9.894;2023-04-16T23:41:04;101210.56;;;7.74;100.00
13690;BME280;6917;52.194;9.894;2023-04-16T23:43:29;101205.13;;;7.69;100.00
13690;BME280;6917;52.194;9.894;2023-04-16T23:45:54;101209.19;;;7.76;100.00
13690;BME280;6917;52.194;9.894;2023-04-16T23:48:20;101207.81;;;7.79;100.00
13690;BME280;6917;52.194;9.894;2023-04-16T23:50:45;101204.59;;;7.82;100.00
13690;BME280;6917;52.194;9.894;2023-04-16T23:53:11;101206.22;;;7.73;100.00
13690;BME280;6917;52.194;9.894;2023-04-16T23:55:36;101207.31;;;7.72;100.00
13690;BME280;6917;52.194;9.894;2023-04-16T23:58:01;101212.47;;;7.84;100.00
